Terminal Aerodrome Forecast
Issued by NWS

Home | Current Version | Previous Version | Text Only | Print | Product List | Glossary On
Versions: 1 2 3 4 5 6 7 8 9 10 11 12 13 14 15 16 17 18 19 20 21 22
000
FTAK31 PANC 301139
TAFADU
TAF
PADU 301139Z 3012/3112 VRB06KT P6SM VCSH BKN025 OVC035
     FM301900 19010G18KT 4SM -RA SCT008 OVC015
     FM310400 20018G27KT 4SM -RA SCT008 OVC015
     FM310800 23025G35KT 5SM -RA SCT015 BKN025=

USA.gov is the U.S. government's official web portal to all federal, state and local government web resources and services.